createdAt,value
2017-09-21T00:00:07.730Z,11.20
2017-09-21T00:02:35.916Z,11.20
2017-09-21T00:05:03.339Z,11.20
2017-09-21T00:07:30.760Z,11.30
2017-09-21T00:09:58.182Z,11.40
2017-09-21T00:12:25.601Z,11.40
2017-09-21T00:14:53.018Z,11.30
2017-09-21T00:17:20.431Z,11.30
2017-09-21T00:19:48.627Z,11.30
2017-09-21T00:22:16.103Z,11.30
2017-09-21T00:24:43.650Z,11.20
2017-09-21T00:27:11.062Z,11.10
2017-09-21T00:29:38.576Z,11.10
2017-09-21T00:32:05.972Z,11.10
2017-09-21T00:34:33.386Z,11.10
2017-09-21T00:37:00.811Z,11.00
2017-09-21T00:39:28.263Z,11.00
2017-09-21T00:41:56.459Z,11.00
2017-09-21T00:44:23.923Z,11.00
2017-09-21T00:46:51.351Z,11.10
2017-09-21T00:49:19.540Z,11.10
2017-09-21T00:51:46.956Z,11.10
2017-09-21T00:54:14.373Z,11.30
2017-09-21T00:56:41.795Z,11.30
2017-09-21T00:59:09.279Z,11.20
2017-09-21T01:01:36.695Z,11.20
2017-09-21T01:04:04.938Z,10.80
2017-09-21T01:06:32.323Z,10.80
2017-09-21T01:09:00.516Z,10.80
2017-09-21T01:11:29.294Z,10.90
2017-09-21T01:13:57.546Z,10.90
2017-09-21T01:16:25.734Z,10.90
2017-09-21T01:18:53.916Z,10.90
2017-09-21T01:21:22.096Z,10.90
2017-09-21T01:23:49.515Z,10.90
2017-09-21T01:26:18.436Z,10.90
2017-09-21T01:28:46.647Z,10.70
2017-09-21T01:31:14.064Z,10.70
2017-09-21T01:33:42.236Z,10.60
2017-09-21T01:36:10.423Z,10.60
2017-09-21T01:38:37.838Z,10.50
2017-09-21T01:41:05.256Z,10.50
2017-09-21T01:43:32.676Z,10.50
2017-09-21T01:46:00.891Z,10.60
2017-09-21T01:48:34.172Z,10.60
2017-09-21T01:51:01.588Z,10.70
2017-09-21T01:53:29.032Z,10.60
2017-09-21T01:55:56.452Z,10.50
2017-09-21T01:58:23.864Z,10.60
2017-09-21T02:00:52.076Z,10.40
2017-09-21T02:03:19.506Z,10.40
2017-09-21T02:05:47.687Z,10.30
2017-09-21T02:08:15.106Z,10.30
2017-09-21T02:10:42.548Z,10.40
2017-09-21T02:13:09.968Z,10.40
2017-09-21T02:15:37.385Z,10.40
2017-09-21T02:18:05.628Z,10.50
2017-09-21T02:20:33.063Z,10.50
2017-09-21T02:23:00.538Z,10.60
2017-09-21T02:25:27.977Z,10.50
2017-09-21T02:27:55.382Z,10.50
2017-09-21T02:30:23.647Z,10.50
2017-09-21T02:32:51.174Z,10.50
2017-09-21T02:35:18.591Z,10.40
2017-09-21T02:37:46.798Z,10.30
2017-09-21T02:40:14.211Z,10.30
2017-09-21T02:42:42.394Z,10.30
2017-09-21T02:45:10.580Z,10.30
2017-09-21T02:47:38.054Z,10.30
2017-09-21T02:50:05.470Z,10.40
2017-09-21T02:52:32.919Z,10.30
2017-09-21T02:55:01.144Z,10.40
2017-09-21T02:57:28.600Z,10.30
2017-09-21T02:59:56.030Z,10.40
2017-09-21T03:02:23.448Z,10.40
2017-09-21T03:04:50.974Z,10.40
2017-09-21T03:07:18.419Z,10.50
2017-09-21T03:09:45.833Z,10.50
2017-09-21T03:12:13.740Z,10.60
2017-09-21T03:14:41.155Z,10.50
2017-09-21T03:17:08.574Z,10.40
2017-09-21T03:19:36.019Z,10.40
2017-09-21T03:22:03.414Z,10.40
2017-09-21T03:24:30.834Z,10.40
2017-09-21T03:26:58.263Z,10.40
2017-09-21T03:29:25.668Z,10.30
2017-09-21T03:31:53.078Z,10.30
2017-09-21T03:34:20.491Z,10.40
2017-09-21T03:36:47.912Z,10.40
2017-09-21T03:39:15.336Z,10.40
2017-09-21T03:41:43.542Z,10.40
2017-09-21T03:44:10.961Z,10.30
2017-09-21T03:46:39.152Z,10.40
2017-09-21T03:49:06.649Z,10.40
2017-09-21T03:51:34.230Z,10.50
2017-09-21T03:54:02.467Z,10.50
2017-09-21T03:56:29.883Z,10.50
2017-09-21T03:58:57.369Z,10.50
2017-09-21T04:01:24.770Z,10.50
2017-09-21T04:03:52.191Z,10.40
2017-09-21T04:06:19.610Z,10.40
2017-09-21T04:08:47.794Z,10.40
2017-09-21T04:11:15.555Z,10.40
2017-09-21T04:13:42.975Z,10.40
2017-09-21T04:16:10.556Z,10.40
2017-09-21T04:18:39.526Z,10.40
2017-09-21T04:21:06.927Z,10.40
2017-09-21T04:23:34.345Z,10.40
2017-09-21T04:26:02.530Z,10.50
2017-09-21T04:28:30.887Z,10.50
2017-09-21T04:30:58.399Z,10.50
2017-09-21T04:33:25.801Z,10.50
2017-09-21T04:35:53.308Z,10.60
2017-09-21T04:38:20.765Z,10.60
2017-09-21T04:40:48.199Z,10.60
2017-09-21T04:43:15.626Z,10.60
2017-09-21T04:45:44.546Z,10.70
2017-09-21T04:48:11.971Z,10.70
2017-09-21T04:50:41.250Z,10.80
2017-09-21T04:53:08.672Z,10.70
2017-09-21T04:55:36.087Z,10.80
2017-09-21T04:58:03.934Z,10.80
2017-09-21T05:00:31.456Z,10.80
2017-09-21T05:02:58.875Z,10.80
2017-09-21T05:05:27.064Z,10.90
2017-09-21T05:07:55.240Z,10.80
2017-09-21T05:10:22.668Z,10.80
2017-09-21T05:12:50.101Z,10.70
2017-09-21T05:15:17.913Z,10.70
2017-09-21T05:17:45.332Z,10.80
2017-09-21T05:20:13.571Z,10.80
2017-09-21T05:22:40.983Z,10.80
2017-09-21T05:25:09.194Z,10.80
2017-09-21T05:27:36.611Z,10.70
2017-09-21T05:30:04.800Z,10.80
2017-09-21T05:32:32.979Z,10.90
2017-09-21T05:35:00.404Z,10.90
2017-09-21T05:37:27.821Z,10.90
2017-09-21T05:39:55.243Z,10.90
2017-09-21T05:42:22.659Z,10.90
2017-09-21T05:44:50.079Z,11.00
2017-09-21T05:47:17.535Z,11.10
2017-09-21T05:49:44.954Z,11.10
2017-09-21T05:52:13.692Z,11.20
2017-09-21T05:54:41.118Z,11.20
2017-09-21T05:57:08.522Z,11.10
2017-09-21T05:59:35.952Z,11.20
2017-09-21T06:02:03.363Z,11.20
2017-09-21T06:04:31.572Z,11.30
2017-09-21T06:06:59.291Z,11.30
2017-09-21T06:09:27.514Z,11.30
2017-09-21T06:11:55.924Z,11.30
2017-09-21T06:14:23.572Z,11.30
2017-09-21T06:16:50.982Z,11.40
2017-09-21T06:19:18.427Z,11.40
2017-09-21T06:21:46.606Z,11.50
2017-09-21T06:24:14.052Z,11.50
2017-09-21T06:26:42.238Z,11.50
2017-09-21T06:29:09.650Z,11.40
2017-09-21T06:31:37.195Z,11.60
2017-09-21T06:34:04.605Z,11.60
2017-09-21T06:36:33.606Z,11.60
2017-09-21T06:39:01.040Z,11.60
2017-09-21T06:41:29.227Z,11.60
2017-09-21T06:43:58.258Z,11.70
2017-09-21T06:46:25.706Z,11.70
2017-09-21T06:48:54.051Z,11.80
2017-09-21T06:51:22.263Z,12.10
2017-09-21T06:53:50.230Z,12.10
2017-09-21T06:56:17.653Z,12.10
2017-09-21T06:58:45.835Z,12.40
2017-09-21T07:01:13.288Z,12.40
2017-09-21T07:03:40.722Z,12.50
2017-09-21T07:06:08.224Z,12.70
2017-09-21T07:08:35.659Z,12.80
2017-09-21T07:11:03.964Z,12.80
2017-09-21T07:13:31.357Z,12.80
2017-09-21T07:15:59.594Z,13.20
2017-09-21T07:18:27.015Z,13.20
2017-09-21T07:20:55.200Z,13.30
2017-09-21T07:23:22.627Z,13.30
2017-09-21T07:25:50.045Z,13.60
2017-09-21T07:28:17.488Z,13.50
2017-09-21T07:30:44.933Z,13.50
2017-09-21T07:33:13.094Z,13.10
2017-09-21T07:35:40.519Z,13.10
2017-09-21T07:38:07.952Z,13.00
2017-09-21T07:40:35.363Z,12.90
2017-09-21T07:43:02.786Z,12.90
2017-09-21T07:45:30.979Z,12.90
2017-09-21T07:47:59.158Z,12.90
2017-09-21T07:50:27.598Z,12.90
2017-09-21T07:52:55.129Z,12.90
2017-09-21T07:55:22.527Z,13.00
2017-09-21T07:57:49.951Z,13.10
2017-09-21T08:00:17.411Z,13.20
2017-09-21T08:02:44.983Z,13.20
2017-09-21T08:05:13.257Z,13.20
2017-09-21T08:07:40.736Z,13.20
2017-09-21T08:10:08.147Z,13.20
2017-09-21T08:12:35.587Z,13.50
2017-09-21T08:15:03.463Z,13.60
2017-09-21T08:17:30.881Z,13.80
2017-09-21T08:19:59.095Z,14.00
2017-09-21T08:22:26.630Z,14.00
2017-09-21T08:24:54.819Z,14.30
2017-09-21T08:27:22.386Z,14.20
2017-09-21T08:29:51.371Z,14.40
2017-09-21T08:32:18.959Z,14.40
2017-09-21T08:34:46.590Z,14.30
2017-09-21T08:37:14.000Z,14.30
2017-09-21T08:39:41.507Z,14.30
2017-09-21T08:42:08.919Z,14.40
2017-09-21T08:44:36.418Z,14.60
2017-09-21T08:47:03.834Z,14.90
2017-09-21T08:49:32.055Z,14.90
2017-09-21T08:51:59.467Z,14.90
2017-09-21T08:54:27.786Z,15.10
2017-09-21T08:56:55.287Z,15.10
2017-09-21T08:59:22.707Z,15.20
2017-09-21T09:01:50.119Z,15.20
2017-09-21T09:04:18.327Z,15.50
2017-09-21T09:06:45.751Z,15.50
2017-09-21T09:09:13.954Z,15.50
2017-09-21T09:14:12.664Z,15.60
2017-09-21T09:16:40.083Z,15.70
2017-09-21T09:19:08.275Z,15.70
2017-09-21T09:21:35.706Z,15.70
2017-09-21T09:24:03.906Z,16.10
2017-09-21T09:26:31.326Z,16.10
2017-09-21T09:28:58.746Z,16.10
2017-09-21T09:31:26.167Z,16.10
2017-09-21T09:33:53.617Z,16.20
2017-09-21T09:36:21.831Z,16.40
2017-09-21T09:38:49.247Z,16.30
2017-09-21T09:41:17.439Z,16.50
2017-09-21T09:43:44.902Z,16.50
2017-09-21T09:46:12.463Z,16.50
2017-09-21T09:48:39.889Z,16.30
2017-09-21T09:51:08.065Z,16.40
2017-09-21T09:53:36.248Z,16.50
2017-09-21T09:56:03.674Z,16.50
2017-09-21T09:58:31.083Z,16.50
2017-09-21T10:00:58.518Z,16.50
2017-09-21T10:03:25.923Z,16.60
2017-09-21T10:05:53.347Z,16.70
2017-09-21T10:08:20.906Z,16.90
2017-09-21T10:10:48.315Z,16.90
2017-09-21T10:13:16.764Z,17.10
2017-09-21T10:15:44.374Z,17.00
2017-09-21T10:18:11.796Z,17.10
2017-09-21T10:20:40.128Z,17.10
2017-09-21T10:23:07.578Z,17.30
2017-09-21T10:25:35.053Z,17.40
2017-09-21T10:28:02.506Z,17.40
2017-09-21T10:30:29.963Z,17.40
2017-09-21T10:32:57.416Z,17.30
2017-09-21T10:35:24.830Z,17.40
2017-09-21T10:37:52.803Z,17.50
2017-09-21T10:40:20.997Z,17.60
2017-09-21T10:42:48.467Z,17.70
2017-09-21T10:45:15.890Z,17.70
2017-09-21T10:47:44.093Z,17.70
2017-09-21T10:50:11.512Z,17.70
2017-09-21T10:52:39.690Z,17.90
2017-09-21T10:55:07.875Z,18.10
2017-09-21T10:57:36.059Z,18.20
2017-09-21T11:00:03.488Z,18.20
2017-09-21T11:02:31.710Z,18.40
2017-09-21T11:04:59.158Z,18.40
2017-09-21T11:07:26.559Z,18.50
2017-09-21T11:09:54.798Z,18.20
2017-09-21T11:12:22.202Z,18.20
2017-09-21T11:14:50.442Z,17.90
2017-09-21T11:17:17.839Z,17.80
2017-09-21T11:19:46.018Z,17.80
2017-09-21T11:22:14.224Z,17.80
2017-09-21T11:24:41.659Z,17.70
2017-09-21T11:27:09.070Z,17.80
2017-09-21T11:29:36.499Z,17.70
2017-09-21T11:32:03.951Z,17.70
2017-09-21T11:34:31.409Z,17.70
2017-09-21T11:36:58.864Z,17.70
2017-09-21T11:39:26.316Z,17.80
2017-09-21T11:41:53.727Z,17.80
2017-09-21T11:44:21.914Z,18.00
2017-09-21T11:46:50.091Z,18.10
2017-09-21T11:49:18.279Z,18.10
2017-09-21T11:51:46.898Z,18.10
2017-09-21T11:54:14.291Z,18.10
2017-09-21T11:56:42.516Z,18.20
2017-09-21T11:59:09.915Z,18.10
2017-09-21T12:01:38.144Z,18.10
2017-09-21T12:04:06.312Z,18.10
2017-09-21T12:06:34.011Z,18.20
2017-09-21T12:09:01.447Z,18.30
2017-09-21T12:11:28.886Z,18.30
2017-09-21T12:13:56.295Z,18.50
2017-09-21T12:16:24.483Z,18.80
2017-09-21T12:18:52.666Z,18.90
2017-09-21T12:21:20.094Z,18.90
2017-09-21T12:23:49.488Z,18.80
2017-09-21T12:26:17.832Z,18.50
2017-09-21T12:28:45.292Z,18.40
2017-09-21T12:31:12.712Z,18.40
2017-09-21T12:33:40.900Z,19.00
2017-09-21T12:36:08.306Z,19.00
2017-09-21T12:38:35.729Z,19.70
2017-09-21T12:41:03.135Z,21.00
2017-09-21T12:43:31.357Z,21.70
2017-09-21T12:45:58.770Z,21.70
2017-09-21T12:48:26.952Z,20.20
2017-09-21T12:50:55.200Z,19.60
2017-09-21T12:53:22.611Z,19.60
2017-09-21T12:55:52.971Z,19.30
2017-09-21T12:58:21.417Z,18.80
2017-09-21T13:00:48.851Z,18.80
2017-09-21T13:03:17.003Z,18.50
2017-09-21T13:05:45.197Z,18.30
2017-09-21T13:08:13.088Z,18.30
2017-09-21T13:10:40.482Z,18.30
2017-09-21T13:13:07.911Z,18.20
2017-09-21T13:15:35.595Z,18.30
2017-09-21T13:18:03.023Z,18.30
2017-09-21T13:20:33.025Z,18.30
2017-09-21T13:23:00.590Z,18.30
2017-09-21T13:25:28.004Z,18.40
2017-09-21T13:27:57.214Z,18.40
2017-09-21T13:30:27.919Z,18.30
2017-09-21T13:32:55.315Z,18.30
2017-09-21T13:35:22.730Z,18.30
2017-09-21T13:37:52.441Z,18.30
2017-09-21T13:40:21.551Z,18.30
2017-09-21T13:42:50.589Z,18.30
2017-09-21T13:45:17.991Z,18.30
2017-09-21T13:47:45.435Z,18.30
2017-09-21T13:50:12.982Z,18.40
2017-09-21T13:52:40.487Z,18.30
2017-09-21T13:55:08.281Z,18.30
2017-09-21T13:57:35.679Z,18.30
2017-09-21T14:00:03.095Z,18.20
2017-09-21T14:02:30.517Z,18.20
2017-09-21T14:04:58.716Z,18.40
2017-09-21T14:07:26.165Z,18.40
2017-09-21T14:09:54.335Z,18.60
2017-09-21T14:12:21.751Z,18.60
2017-09-21T14:14:49.927Z,18.50
2017-09-21T14:17:17.547Z,18.40
2017-09-21T14:19:44.959Z,18.70
2017-09-21T14:22:13.135Z,19.20
2017-09-21T14:24:41.332Z,19.60
2017-09-21T14:27:08.795Z,19.60
2017-09-21T14:29:36.265Z,20.70
2017-09-21T14:32:03.691Z,23.10
2017-09-21T14:34:31.861Z,27.10
2017-09-21T14:36:59.286Z,27.10
2017-09-21T14:39:26.724Z,28.00
2017-09-21T14:41:54.131Z,26.80
2017-09-21T14:44:21.539Z,25.70
2017-09-21T14:46:48.954Z,26.30
2017-09-21T14:49:16.362Z,26.10
2017-09-21T14:51:43.798Z,25.40
2017-09-21T14:54:11.205Z,25.40
2017-09-21T14:56:39.414Z,25.90
2017-09-21T14:59:06.876Z,25.90
2017-09-21T15:01:34.330Z,26.30
2017-09-21T15:04:01.778Z,26.00
2017-09-21T15:06:29.255Z,25.10
2017-09-21T15:08:56.658Z,24.50
2017-09-21T15:11:24.114Z,22.80
2017-09-21T15:13:52.295Z,21.70
2017-09-21T15:16:19.723Z,21.60
2017-09-21T15:18:48.793Z,21.30
2017-09-21T15:21:16.216Z,21.30
2017-09-21T15:23:43.683Z,20.90
2017-09-21T15:26:11.147Z,20.60
2017-09-21T15:28:38.606Z,20.70
2017-09-21T15:31:06.021Z,20.80
2017-09-21T15:33:34.227Z,20.80
2017-09-21T15:36:01.663Z,20.80
2017-09-21T15:38:29.676Z,20.80
2017-09-21T15:40:57.087Z,20.50
2017-09-21T15:43:24.610Z,20.50
2017-09-21T15:45:52.837Z,20.90
2017-09-21T15:48:20.236Z,20.90
2017-09-21T15:50:47.650Z,20.70
2017-09-21T15:53:15.100Z,20.70
2017-09-21T15:55:42.559Z,20.50
2017-09-21T15:58:10.016Z,20.40
2017-09-21T16:00:37.426Z,20.20
2017-09-21T16:03:05.974Z,20.10
2017-09-21T16:05:33.411Z,20.10
2017-09-21T16:08:00.873Z,19.70
2017-09-21T16:10:29.034Z,19.50
2017-09-21T16:12:56.497Z,19.50
2017-09-21T16:15:23.906Z,19.40
2017-09-21T16:17:52.131Z,19.10
2017-09-21T16:20:19.543Z,19.10
2017-09-21T16:22:47.727Z,18.80
2017-09-21T16:25:15.142Z,18.80
2017-09-21T16:27:42.568Z,18.70
2017-09-21T16:30:09.978Z,18.60
2017-09-21T16:32:38.159Z,18.60
2017-09-21T16:35:06.363Z,18.40
2017-09-21T16:37:33.778Z,18.40
2017-09-21T16:40:01.958Z,18.30
2017-09-21T16:42:30.278Z,18.30
2017-09-21T16:44:57.670Z,18.20
2017-09-21T16:47:25.083Z,18.10
2017-09-21T16:49:52.498Z,18.10
2017-09-21T16:52:20.679Z,18.00
2017-09-21T16:54:48.877Z,18.00
2017-09-21T16:57:16.290Z,17.90
2017-09-21T16:59:43.712Z,17.90
2017-09-21T17:02:11.123Z,17.80
2017-09-21T17:04:39.316Z,17.70
2017-09-21T17:07:06.783Z,17.70
2017-09-21T17:09:34.230Z,17.70
2017-09-21T17:12:01.697Z,17.60
2017-09-21T17:14:29.118Z,17.40
2017-09-21T17:16:57.298Z,17.40
2017-09-21T17:19:25.495Z,17.30
2017-09-21T17:21:52.971Z,17.20
2017-09-21T17:24:20.385Z,17.30
2017-09-21T17:26:48.579Z,17.10
2017-09-21T17:29:15.992Z,17.00
2017-09-21T17:31:43.407Z,17.10
2017-09-21T17:34:10.858Z,17.10
2017-09-21T17:36:38.253Z,17.10
2017-09-21T17:39:05.773Z,17.00
2017-09-21T17:41:33.177Z,16.90
2017-09-21T17:44:00.592Z,17.00
2017-09-21T17:46:28.347Z,16.90
2017-09-21T17:48:55.759Z,16.80
2017-09-21T17:51:23.951Z,16.80
2017-09-21T17:53:51.946Z,16.80
2017-09-21T17:56:19.371Z,16.70
2017-09-21T17:58:46.792Z,16.70
2017-09-21T18:01:14.211Z,16.70
2017-09-21T18:03:41.632Z,16.80
2017-09-21T18:06:09.835Z,16.70
2017-09-21T18:08:37.255Z,16.60
2017-09-21T18:11:05.469Z,16.70
2017-09-21T18:13:32.882Z,16.70
2017-09-21T18:16:01.070Z,16.50
2017-09-21T18:18:29.273Z,16.50
2017-09-21T18:20:56.694Z,16.50
2017-09-21T18:23:24.875Z,16.40
2017-09-21T18:25:53.479Z,16.40
2017-09-21T18:28:21.697Z,16.30
2017-09-21T18:30:49.811Z,16.30
2017-09-21T18:33:17.979Z,16.20
2017-09-21T18:35:46.158Z,16.20
2017-09-21T18:38:13.579Z,16.20
2017-09-21T18:40:40.995Z,16.20
2017-09-21T18:43:08.410Z,16.20
2017-09-21T18:45:36.586Z,16.10
2017-09-21T18:48:04.775Z,16.10
2017-09-21T18:50:32.193Z,16.10
2017-09-21T18:52:59.614Z,15.90
2017-09-21T18:55:27.038Z,15.90
2017-09-21T18:57:54.474Z,15.90
2017-09-21T19:00:22.652Z,15.90
2017-09-21T19:05:15.535Z,15.80
2017-09-21T19:07:42.947Z,15.80
2017-09-21T19:10:10.364Z,15.70
2017-09-21T19:12:38.326Z,15.70
2017-09-21T19:15:05.739Z,15.60
2017-09-21T19:17:33.168Z,15.40
2017-09-21T19:20:00.590Z,15.40
2017-09-21T19:22:28.055Z,15.50
2017-09-21T19:24:55.473Z,15.40
2017-09-21T19:27:23.657Z,15.30
2017-09-21T19:29:51.843Z,15.20
2017-09-21T19:32:19.320Z,15.20
2017-09-21T19:34:46.712Z,15.10
2017-09-21T19:37:14.136Z,15.00
2017-09-21T19:39:41.543Z,15.00
2017-09-21T19:42:09.723Z,14.90
2017-09-21T19:44:37.920Z,14.90
2017-09-21T19:47:05.325Z,14.80
2017-09-21T19:49:32.744Z,14.80
2017-09-21T19:52:00.159Z,14.80
2017-09-21T19:54:28.374Z,14.80
2017-09-21T19:56:55.795Z,14.70
2017-09-21T19:59:23.998Z,14.70
2017-09-21T20:01:51.421Z,14.70
2017-09-21T20:04:19.611Z,14.70
2017-09-21T20:06:47.083Z,14.60
2017-09-21T20:09:14.514Z,14.60
2017-09-21T20:11:42.726Z,14.60
2017-09-21T20:14:10.143Z,14.60
2017-09-21T20:16:38.358Z,14.60
2017-09-21T20:19:05.778Z,14.50
2017-09-21T20:21:33.958Z,14.50
2017-09-21T20:24:01.383Z,14.50
2017-09-21T20:26:28.841Z,14.60
2017-09-21T20:28:56.273Z,14.60
2017-09-21T20:31:23.707Z,14.50
2017-09-21T20:33:51.135Z,14.50
2017-09-21T20:36:18.558Z,14.50
2017-09-21T20:38:47.493Z,14.50
2017-09-21T20:41:14.982Z,14.50
2017-09-21T20:43:42.419Z,14.50
2017-09-21T20:46:09.845Z,14.60
2017-09-21T20:48:40.047Z,14.40
2017-09-21T20:51:08.231Z,14.40
2017-09-21T20:53:36.420Z,14.40
2017-09-21T20:56:04.602Z,14.20
2017-09-21T20:58:32.027Z,14.20
2017-09-21T21:00:59.464Z,14.20
2017-09-21T21:03:26.983Z,14.00
2017-09-21T21:05:54.404Z,14.00
2017-09-21T21:08:22.854Z,13.90
2017-09-21T21:10:50.259Z,13.90
2017-09-21T21:13:18.422Z,14.00
2017-09-21T21:15:46.643Z,14.00
2017-09-21T21:18:14.103Z,14.00
2017-09-21T21:20:41.519Z,14.00
2017-09-21T21:23:08.934Z,14.00
2017-09-21T21:25:36.351Z,14.00
2017-09-21T21:28:03.777Z,13.90
2017-09-21T21:30:31.987Z,14.00
2017-09-21T21:32:59.405Z,13.90
2017-09-21T21:35:33.957Z,13.80
2017-09-21T21:38:01.426Z,13.80
2017-09-21T21:40:28.861Z,13.70
2017-09-21T21:42:56.324Z,13.70
2017-09-21T21:45:23.747Z,13.70
2017-09-21T21:47:51.937Z,13.60
2017-09-21T21:50:19.423Z,13.60
2017-09-21T21:52:46.855Z,13.70
2017-09-21T21:55:14.283Z,13.70
2017-09-21T21:57:42.501Z,13.60
2017-09-21T22:00:09.914Z,13.60
2017-09-21T22:02:38.139Z,13.50
2017-09-21T22:05:05.592Z,13.40
2017-09-21T22:07:33.011Z,13.40
2017-09-21T22:10:01.199Z,13.40
2017-09-21T22:12:28.630Z,13.40
2017-09-21T22:14:56.043Z,13.40
2017-09-21T22:17:23.471Z,13.50
2017-09-21T22:19:50.891Z,13.50
2017-09-21T22:22:18.303Z,13.50
2017-09-21T22:24:45.733Z,13.40
2017-09-21T22:27:13.152Z,13.40
2017-09-21T22:29:41.341Z,13.30
2017-09-21T22:32:09.539Z,13.20
2017-09-21T22:34:37.019Z,13.20
2017-09-21T22:37:04.915Z,13.30
2017-09-21T22:39:33.839Z,13.20
2017-09-21T22:42:02.026Z,13.10
2017-09-21T22:44:29.505Z,13.00
2017-09-21T22:46:56.998Z,12.90
2017-09-21T22:49:24.427Z,12.80
2017-09-21T22:51:51.845Z,12.80
2017-09-21T22:54:20.043Z,12.60
2017-09-21T22:56:47.454Z,12.60
2017-09-21T22:59:15.675Z,12.50
2017-09-21T23:01:43.083Z,12.50
2017-09-21T23:04:10.590Z,12.60
2017-09-21T23:06:38.015Z,12.50
2017-09-21T23:09:06.322Z,12.50
2017-09-21T23:11:33.723Z,12.50
2017-09-21T23:14:01.919Z,12.70
2017-09-21T23:16:30.099Z,12.60
2017-09-21T23:18:57.580Z,12.60
2017-09-21T23:21:25.038Z,12.50
2017-09-21T23:23:52.492Z,12.40
2017-09-21T23:26:19.963Z,12.50
2017-09-21T23:28:47.380Z,12.50
2017-09-21T23:31:14.798Z,12.50
2017-09-21T23:33:42.319Z,12.50
2017-09-21T23:36:09.747Z,12.50
2017-09-21T23:38:37.950Z,12.40
2017-09-21T23:41:05.371Z,12.40
2017-09-21T23:43:33.579Z,12.40
2017-09-21T23:46:01.355Z,12.40
2017-09-21T23:48:28.792Z,12.40
2017-09-21T23:50:56.223Z,12.40
2017-09-21T23:53:24.416Z,12.30
2017-09-21T23:55:51.838Z,12.30
2017-09-21T23:58:20.022Z,12.20
